sensor_id;sensor_type;location;lat;lon;timestamp;temperature;humidity
26655;DHT22;14278;50.784;4.630;2023-04-07T00:01:35;10.40;99.90
26655;DHT22;14278;50.784;4.630;2023-04-07T00:04:03;10.50;99.90
26655;DHT22;14278;50.784;4.630;2023-04-07T00:06:30;10.50;99.90
26655;DHT22;14278;50.784;4.630;2023-04-07T00:08:56;10.30;99.90
26655;DHT22;14278;50.784;4.630;2023-04-07T00:11:21;10.30;99.90
26655;DHT22;14278;50.784;4.630;2023-04-07T00:13:48;10.20;99.90
26655;DHT22;14278;50.784;4.630;2023-04-07T00:16:13;10.10;99.90
26655;DHT22;14278;50.784;4.630;2023-04-07T00:18:40;9.90;99.90
26655;DHT22;14278;50.784;4.630;2023-04-07T00:21:05;10.00;99.90
26655;DHT22;14278;50.784;4.630;2023-04-07T00:23:31;9.90;99.90
26655;DHT22;14278;50.784;4.630;2023-04-07T00:25:58;9.90;99.90
26655;DHT22;14278;50.784;4.630;2023-04-07T00:28:23;9.60;99.90
26655;DHT22;14278;50.784;4.630;2023-04-07T00:30:50;9.70;99.90
26655;DHT22;14278;50.784;4.630;2023-04-07T00:33:16;10.00;99.90
26655;DHT22;14278;50.784;4.630;2023-04-07T00:35:42;10.00;99.90
26655;DHT22;14278;50.784;4.630;2023-04-07T00:38:07;10.10;99.90
26655;DHT22;14278;50.784;4.630;2023-04-07T00:40:33;10.30;99.90
26655;DHT22;14278;50.784;4.630;2023-04-07T00:43:00;10.40;99.90
26655;DHT22;14278;50.784;4.630;2023-04-07T00:45:26;10.30;99.90
26655;DHT22;14278;50.784;4.630;2023-04-07T00:47:51;10.30;99.90
26655;DHT22;14278;50.784;4.630;2023-04-07T00:50:18;10.40;99.90
26655;DHT22;14278;50.784;4.630;2023-04-07T00:52:44;10.50;99.90
26655;DHT22;14278;50.784;4.630;2023-04-07T00:55:11;10.50;99.90
26655;DHT22;14278;50.784;4.630;2023-04-07T00:57:36;10.60;99.90
26655;DHT22;14278;50.784;4.630;2023-04-07T01:00:03;10.90;99.90
26655;DHT22;14278;50.784;4.630;2023-04-07T01:05:15;10.80;99.90
26655;DHT22;14278;50.784;4.630;2023-04-07T01:07:59;10.90;99.90
26655;DHT22;14278;50.784;4.630;2023-04-07T01:13:45;10.20;99.90
26655;DHT22;14278;50.784;4.630;2023-04-07T01:16:18;9.90;99.90
26655;DHT22;14278;50.784;4.630;2023-04-07T01:18:51;9.90;99.90
26655;DHT22;14278;50.784;4.630;2023-04-07T01:21:19;10.00;99.90
26655;DHT22;14278;50.784;4.630;2023-04-07T01:26:26;10.40;99.90
26655;DHT22;14278;50.784;4.630;2023-04-07T01:31:30;10.60;99.90
26655;DHT22;14278;50.784;4.630;2023-04-07T01:33:58;10.70;99.90
26655;DHT22;14278;50.784;4.630;2023-04-07T01:36:26;10.60;99.90
26655;DHT22;14278;50.784;4.630;2023-04-07T01:38:54;10.40;99.90
26655;DHT22;14278;50.784;4.630;2023-04-07T01:41:21;10.50;99.90
26655;DHT22;14278;50.784;4.630;2023-04-07T01:43:48;10.40;99.90
26655;DHT22;14278;50.784;4.630;2023-04-07T01:46:15;10.40;99.90
26655;DHT22;14278;50.784;4.630;2023-04-07T01:48:41;10.40;99.90
26655;DHT22;14278;50.784;4.630;2023-04-07T01:51:08;10.50;99.90
26655;DHT22;14278;50.784;4.630;2023-04-07T01:53:37;10.60;99.90
26655;DHT22;14278;50.784;4.630;2023-04-07T01:56:04;10.60;99.90
26655;DHT22;14278;50.784;4.630;2023-04-07T01:58:30;10.70;99.90
26655;DHT22;14278;50.784;4.630;2023-04-07T02:00:56;10.70;99.90
26655;DHT22;14278;50.784;4.630;2023-04-07T02:03:30;10.60;99.90
26655;DHT22;14278;50.784;4.630;2023-04-07T02:06:05;10.50;99.90
26655;DHT22;14278;50.784;4.630;2023-04-07T02:08:32;10.10;99.90
26655;DHT22;14278;50.784;4.630;2023-04-07T02:11:01;10.30;99.90
26655;DHT22;14278;50.784;4.630;2023-04-07T02:13:29;10.20;99.90
26655;DHT22;14278;50.784;4.630;2023-04-07T02:15:56;10.30;99.90
26655;DHT22;14278;50.784;4.630;2023-04-07T02:18:22;10.30;99.90
26655;DHT22;14278;50.784;4.630;2023-04-07T02:20:51;10.20;99.90
26655;DHT22;14278;50.784;4.630;2023-04-07T02:23:17;10.20;99.90
26655;DHT22;14278;50.784;4.630;2023-04-07T02:25:43;10.10;99.90
26655;DHT22;14278;50.784;4.630;2023-04-07T02:28:09;10.00;99.90
26655;DHT22;14278;50.784;4.630;2023-04-07T02:30:35;10.10;99.90
26655;DHT22;14278;50.784;4.630;2023-04-07T02:33:01;9.90;99.90
26655;DHT22;14278;50.784;4.630;2023-04-07T02:35:27;10.00;99.90
26655;DHT22;14278;50.784;4.630;2023-04-07T02:37:53;10.00;99.90
26655;DHT22;14278;50.784;4.630;2023-04-07T02:40:19;9.90;99.90
26655;DHT22;14278;50.784;4.630;2023-04-07T02:42:45;9.90;99.90
26655;DHT22;14278;50.784;4.630;2023-04-07T02:45:12;9.90;99.90
26655;DHT22;14278;50.784;4.630;2023-04-07T02:47:38;9.80;99.90
26655;DHT22;14278;50.784;4.630;2023-04-07T02:50:04;9.80;99.90
26655;DHT22;14278;50.784;4.630;2023-04-07T02:52:31;9.70;99.90
26655;DHT22;14278;50.784;4.630;2023-04-07T02:54:57;9.80;99.90
26655;DHT22;14278;50.784;4.630;2023-04-07T02:57:23;9.90;99.90
26655;DHT22;14278;50.784;4.630;2023-04-07T02:59:49;9.90;99.90
26655;DHT22;14278;50.784;4.630;2023-04-07T03:02:14;9.90;99.90
26655;DHT22;14278;50.784;4.630;2023-04-07T03:04:41;9.70;99.90
26655;DHT22;14278;50.784;4.630;2023-04-07T03:07:07;9.70;99.90
26655;DHT22;14278;50.784;4.630;2023-04-07T03:09:33;9.50;99.90
26655;DHT22;14278;50.784;4.630;2023-04-07T03:11:59;9.50;99.90
26655;DHT22;14278;50.784;4.630;2023-04-07T03:14:26;9.40;99.90
26655;DHT22;14278;50.784;4.630;2023-04-07T03:16:53;9.40;99.90
26655;DHT22;14278;50.784;4.630;2023-04-07T03:19:18;9.40;99.90
26655;DHT22;14278;50.784;4.630;2023-04-07T03:21:45;9.50;99.90
26655;DHT22;14278;50.784;4.630;2023-04-07T03:24:10;9.40;99.90
26655;DHT22;14278;50.784;4.630;2023-04-07T03:26:36;9.20;99.90
26655;DHT22;14278;50.784;4.630;2023-04-07T03:29:03;9.20;99.90
26655;DHT22;14278;50.784;4.630;2023-04-07T03:31:29;9.10;99.90
26655;DHT22;14278;50.784;4.630;2023-04-07T03:33:55;9.20;99.90
26655;DHT22;14278;50.784;4.630;2023-04-07T03:36:21;9.30;99.90
26655;DHT22;14278;50.784;4.630;2023-04-07T03:38:47;9.20;99.90
26655;DHT22;14278;50.784;4.630;2023-04-07T03:41:13;9.30;99.90
26655;DHT22;14278;50.784;4.630;2023-04-07T03:43:39;9.30;99.90
26655;DHT22;14278;50.784;4.630;2023-04-07T03:46:06;9.10;99.90
26655;DHT22;14278;50.784;4.630;2023-04-07T03:48:32;9.20;99.90
26655;DHT22;14278;50.784;4.630;2023-04-07T03:50:58;9.30;99.90
26655;DHT22;14278;50.784;4.630;2023-04-07T03:53:24;9.30;99.90
26655;DHT22;14278;50.784;4.630;2023-04-07T03:55:50;9.30;99.90
26655;DHT22;14278;50.784;4.630;2023-04-07T03:58:17;9.30;99.90
26655;DHT22;14278;50.784;4.630;2023-04-07T04:00:43;9.30;99.90
26655;DHT22;14278;50.784;4.630;2023-04-07T04:03:09;9.30;99.90
26655;DHT22;14278;50.784;4.630;2023-04-07T04:05:35;9.40;99.90
26655;DHT22;14278;50.784;4.630;2023-04-07T04:08:01;9.50;99.90
26655;DHT22;14278;50.784;4.630;2023-04-07T04:10:27;9.50;99.90
26655;DHT22;14278;50.784;4.630;2023-04-07T04:12:53;9.60;99.90
26655;DHT22;14278;50.784;4.630;2023-04-07T04:15:19;9.70;99.90
26655;DHT22;14278;50.784;4.630;2023-04-07T04:17:45;9.50;99.90
26655;DHT22;14278;50.784;4.630;2023-04-07T04:20:11;9.70;99.90
26655;DHT22;14278;50.784;4.630;2023-04-07T04:22:37;9.60;99.90
26655;DHT22;14278;50.784;4.630;2023-04-07T04:25:03;9.60;99.90
26655;DHT22;14278;50.784;4.630;2023-04-07T04:27:29;9.70;99.90
26655;DHT22;14278;50.784;4.630;2023-04-07T04:29:56;9.70;99.90
26655;DHT22;14278;50.784;4.630;2023-04-07T04:32:22;9.70;99.90
26655;DHT22;14278;50.784;4.630;2023-04-07T04:34:48;9.80;99.90
26655;DHT22;14278;50.784;4.630;2023-04-07T04:37:14;9.60;99.90
26655;DHT22;14278;50.784;4.630;2023-04-07T04:39:40;9.60;99.90
26655;DHT22;14278;50.784;4.630;2023-04-07T04:42:06;9.70;99.90
26655;DHT22;14278;50.784;4.630;2023-04-07T04:44:32;9.60;99.90
26655;DHT22;14278;50.784;4.630;2023-04-07T04:46:58;9.70;99.90
26655;DHT22;14278;50.784;4.630;2023-04-07T04:49:24;9.50;99.90
26655;DHT22;14278;50.784;4.630;2023-04-07T04:51:50;9.30;99.90
26655;DHT22;14278;50.784;4.630;2023-04-07T04:54:18;9.70;99.90
26655;DHT22;14278;50.784;4.630;2023-04-07T04:56:44;9.80;99.90
26655;DHT22;14278;50.784;4.630;2023-04-07T04:59:10;9.70;99.90
26655;DHT22;14278;50.784;4.630;2023-04-07T05:01:36;9.90;99.90
26655;DHT22;14278;50.784;4.630;2023-04-07T05:04:01;9.80;99.90
26655;DHT22;14278;50.784;4.630;2023-04-07T05:06:28;9.80;99.90
26655;DHT22;14278;50.784;4.630;2023-04-07T05:08:54;9.90;99.90
26655;DHT22;14278;50.784;4.630;2023-04-07T05:11:20;10.00;99.90
26655;DHT22;14278;50.784;4.630;2023-04-07T05:13:46;10.00;99.90
26655;DHT22;14278;50.784;4.630;2023-04-07T05:16:12;10.10;99.90
26655;DHT22;14278;50.784;4.630;2023-04-07T05:18:38;9.80;99.90
26655;DHT22;14278;50.784;4.630;2023-04-07T05:21:04;9.80;99.90
26655;DHT22;14278;50.784;4.630;2023-04-07T05:23:31;9.80;99.90
26655;DHT22;14278;50.784;4.630;2023-04-07T05:25:56;9.80;99.90
26655;DHT22;14278;50.784;4.630;2023-04-07T05:28:22;9.40;99.90
26655;DHT22;14278;50.784;4.630;2023-04-07T05:30:49;9.30;99.90
26655;DHT22;14278;50.784;4.630;2023-04-07T05:33:15;9.50;99.90
26655;DHT22;14278;50.784;4.630;2023-04-07T05:35:43;9.70;99.90
26655;DHT22;14278;50.784;4.630;2023-04-07T05:38:10;9.80;99.90
26655;DHT22;14278;50.784;4.630;2023-04-07T05:40:36;10.10;99.90
26655;DHT22;14278;50.784;4.630;2023-04-07T05:43:02;10.10;99.90
26655;DHT22;14278;50.784;4.630;2023-04-07T05:45:28;9.90;99.90
26655;DHT22;14278;50.784;4.630;2023-04-07T05:47:54;10.00;99.90
26655;DHT22;14278;50.784;4.630;2023-04-07T05:50:20;10.20;99.90
26655;DHT22;14278;50.784;4.630;2023-04-07T05:52:45;10.30;99.90
26655;DHT22;14278;50.784;4.630;2023-04-07T05:55:12;10.40;99.90
26655;DHT22;14278;50.784;4.630;2023-04-07T05:57:37;10.40;99.90
26655;DHT22;14278;50.784;4.630;2023-04-07T06:00:04;10.60;99.90
26655;DHT22;14278;50.784;4.630;2023-04-07T06:02:30;10.70;99.90
26655;DHT22;14278;50.784;4.630;2023-04-07T06:04:56;10.80;99.90
26655;DHT22;14278;50.784;4.630;2023-04-07T06:07:22;10.90;99.90
26655;DHT22;14278;50.784;4.630;2023-04-07T06:09:48;11.10;99.90
26655;DHT22;14278;50.784;4.630;2023-04-07T06:12:14;10.70;99.90
26655;DHT22;14278;50.784;4.630;2023-04-07T06:14:41;11.10;99.90
26655;DHT22;14278;50.784;4.630;2023-04-07T06:17:07;10.90;99.90
26655;DHT22;14278;50.784;4.630;2023-04-07T06:19:33;10.80;99.90
26655;DHT22;14278;50.784;4.630;2023-04-07T06:21:59;10.70;99.90
26655;DHT22;14278;50.784;4.630;2023-04-07T06:24:25;10.80;99.90
26655;DHT22;14278;50.784;4.630;2023-04-07T06:26:51;10.90;99.90
26655;DHT22;14278;50.784;4.630;2023-04-07T06:29:17;10.90;99.90
26655;DHT22;14278;50.784;4.630;2023-04-07T06:31:44;10.50;99.90
26655;DHT22;14278;50.784;4.630;2023-04-07T06:34:09;10.80;99.90
26655;DHT22;14278;50.784;4.630;2023-04-07T06:36:36;11.10;99.90
26655;DHT22;14278;50.784;4.630;2023-04-07T06:39:02;11.10;99.90
26655;DHT22;14278;50.784;4.630;2023-04-07T06:41:28;11.30;99.90
26655;DHT22;14278;50.784;4.630;2023-04-07T06:43:54;11.40;99.90
26655;DHT22;14278;50.784;4.630;2023-04-07T06:46:20;11.30;99.90
26655;DHT22;14278;50.784;4.630;2023-04-07T06:48:47;11.60;99.90
26655;DHT22;14278;50.784;4.630;2023-04-07T06:51:12;11.70;99.90
26655;DHT22;14278;50.784;4.630;2023-04-07T06:53:38;12.10;99.90
26655;DHT22;14278;50.784;4.630;2023-04-07T06:56:08;11.90;99.90
26655;DHT22;14278;50.784;4.630;2023-04-07T06:58:34;12.00;99.90
26655;DHT22;14278;50.784;4.630;2023-04-07T07:01:01;11.50;99.90
26655;DHT22;14278;50.784;4.630;2023-04-07T07:03:28;12.00;99.90
26655;DHT22;14278;50.784;4.630;2023-04-07T07:05:55;12.60;99.90
26655;DHT22;14278;50.784;4.630;2023-04-07T07:08:26;12.80;99.90
26655;DHT22;14278;50.784;4.630;2023-04-07T07:10:53;13.10;99.90
26655;DHT22;14278;50.784;4.630;2023-04-07T07:13:21;13.20;99.90
26655;DHT22;14278;50.784;4.630;2023-04-07T07:15:51;13.60;99.90
26655;DHT22;14278;50.784;4.630;2023-04-07T07:18:18;13.20;99.90
26655;DHT22;14278;50.784;4.630;2023-04-07T07:20:44;13.10;99.90
26655;DHT22;14278;50.784;4.630;2023-04-07T07:23:10;12.80;99.90
26655;DHT22;14278;50.784;4.630;2023-04-07T07:25:36;12.90;99.90
26655;DHT22;14278;50.784;4.630;2023-04-07T07:28:02;12.30;99.90
26655;DHT22;14278;50.784;4.630;2023-04-07T07:30:28;12.10;99.90
26655;DHT22;14278;50.784;4.630;2023-04-07T07:32:54;12.10;99.90
26655;DHT22;14278;50.784;4.630;2023-04-07T07:35:21;11.90;99.90
26655;DHT22;14278;50.784;4.630;2023-04-07T07:37:46;12.30;99.90
26655;DHT22;14278;50.784;4.630;2023-04-07T07:40:13;12.60;99.90
26655;DHT22;14278;50.784;4.630;2023-04-07T07:42:40;12.50;99.90
26655;DHT22;14278;50.784;4.630;2023-04-07T07:45:07;12.10;99.90
26655;DHT22;14278;50.784;4.630;2023-04-07T07:47:32;12.60;99.90
26655;DHT22;14278;50.784;4.630;2023-04-07T07:49:58;13.10;99.90
26655;DHT22;14278;50.784;4.630;2023-04-07T07:52:25;13.10;99.90
26655;DHT22;14278;50.784;4.630;2023-04-07T07:54:51;12.50;99.90
26655;DHT22;14278;50.784;4.630;2023-04-07T07:57:17;12.70;99.90
26655;DHT22;14278;50.784;4.630;2023-04-07T07:59:42;13.10;99.90
26655;DHT22;14278;50.784;4.630;2023-04-07T08:02:09;12.20;99.90
26655;DHT22;14278;50.784;4.630;2023-04-07T08:04:35;12.70;99.90
26655;DHT22;14278;50.784;4.630;2023-04-07T08:07:02;12.50;99.90
26655;DHT22;14278;50.784;4.630;2023-04-07T08:09:29;12.60;99.90
26655;DHT22;14278;50.784;4.630;2023-04-07T08:11:54;12.50;99.90
26655;DHT22;14278;50.784;4.630;2023-04-07T08:14:20;12.30;99.90
26655;DHT22;14278;50.784;4.630;2023-04-07T08:16:46;12.70;99.90
26655;DHT22;14278;50.784;4.630;2023-04-07T08:19:13;12.70;99.90
26655;DHT22;14278;50.784;4.630;2023-04-07T08:21:39;12.80;99.90
26655;DHT22;14278;50.784;4.630;2023-04-07T08:24:05;12.50;99.90
26655;DHT22;14278;50.784;4.630;2023-04-07T08:26:31;11.70;99.90
26655;DHT22;14278;50.784;4.630;2023-04-07T08:28:57;11.80;99.90
26655;DHT22;14278;50.784;4.630;2023-04-07T08:31:24;12.40;99.90
26655;DHT22;14278;50.784;4.630;2023-04-07T08:33:50;13.10;99.90
26655;DHT22;14278;50.784;4.630;2023-04-07T08:36:22;13.40;99.90
26655;DHT22;14278;50.784;4.630;2023-04-07T08:38:48;13.40;99.90
26655;DHT22;14278;50.784;4.630;2023-04-07T08:41:23;13.40;99.90
26655;DHT22;14278;50.784;4.630;2023-04-07T08:43:52;13.60;99.90
26655;DHT22;14278;50.784;4.630;2023-04-07T08:46:21;14.80;99.90
26655;DHT22;14278;50.784;4.630;2023-04-07T08:48:50;16.10;99.90
26655;DHT22;14278;50.784;4.630;2023-04-07T08:51:31;15.50;99.90
26655;DHT22;14278;50.784;4.630;2023-04-07T08:54:17;15.20;99.90
26655;DHT22;14278;50.784;4.630;2023-04-07T08:56:46;15.00;99.90
26655;DHT22;14278;50.784;4.630;2023-04-07T08:59:14;15.00;99.90
26655;DHT22;14278;50.784;4.630;2023-04-07T09:01:43;14.70;99.90
26655;DHT22;14278;50.784;4.630;2023-04-07T09:04:09;15.00;99.90
26655;DHT22;14278;50.784;4.630;2023-04-07T09:06:36;15.50;99.90
26655;DHT22;14278;50.784;4.630;2023-04-07T09:09:03;15.30;99.90
26655;DHT22;14278;50.784;4.630;2023-04-07T09:11:35;15.50;99.90
26655;DHT22;14278;50.784;4.630;2023-04-07T09:14:01;14.90;99.90
26655;DHT22;14278;50.784;4.630;2023-04-07T09:16:30;13.90;99.90
26655;DHT22;14278;50.784;4.630;2023-04-07T09:18:57;14.00;99.90
26655;DHT22;14278;50.784;4.630;2023-04-07T09:21:23;14.30;99.90
26655;DHT22;14278;50.784;4.630;2023-04-07T09:23:49;14.60;99.90
26655;DHT22;14278;50.784;4.630;2023-04-07T09:26:21;14.90;99.90
26655;DHT22;14278;50.784;4.630;2023-04-07T09:29:07;14.10;99.90
26655;DHT22;14278;50.784;4.630;2023-04-07T09:31:44;14.30;99.90
26655;DHT22;14278;50.784;4.630;2023-04-07T09:34:33;14.50;99.90
26655;DHT22;14278;50.784;4.630;2023-04-07T09:37:00;15.00;99.90
26655;DHT22;14278;50.784;4.630;2023-04-07T09:39:26;14.60;99.90
26655;DHT22;14278;50.784;4.630;2023-04-07T09:41:52;15.00;99.90
26655;DHT22;14278;50.784;4.630;2023-04-07T09:44:20;14.60;99.90
26655;DHT22;14278;50.784;4.630;2023-04-07T09:49:16;16.40;99.90
26655;DHT22;14278;50.784;4.630;2023-04-07T09:52:03;17.60;99.90
26655;DHT22;14278;50.784;4.630;2023-04-07T09:54:38;18.20;99.90
26655;DHT22;14278;50.784;4.630;2023-04-07T09:57:09;19.20;99.90
26655;DHT22;14278;50.784;4.630;2023-04-07T09:59:37;19.10;99.90
26655;DHT22;14278;50.784;4.630;2023-04-07T10:02:04;18.10;99.90
26655;DHT22;14278;50.784;4.630;2023-04-07T10:04:30;18.30;99.90
26655;DHT22;14278;50.784;4.630;2023-04-07T10:06:57;18.40;99.90
26655;DHT22;14278;50.784;4.630;2023-04-07T10:09:27;18.10;99.90
26655;DHT22;14278;50.784;4.630;2023-04-07T10:11:55;18.00;99.90
26655;DHT22;14278;50.784;4.630;2023-04-07T10:14:28;18.10;99.90
26655;DHT22;14278;50.784;4.630;2023-04-07T10:16:54;18.20;99.90
26655;DHT22;14278;50.784;4.630;2023-04-07T10:19:22;18.20;99.90
26655;DHT22;14278;50.784;4.630;2023-04-07T10:21:50;18.50;99.90
26655;DHT22;14278;50.784;4.630;2023-04-07T10:27:18;18.40;99.90
26655;DHT22;14278;50.784;4.630;2023-04-07T10:29:48;18.80;99.90
26655;DHT22;14278;50.784;4.630;2023-04-07T10:32:15;19.10;99.90
26655;DHT22;14278;50.784;4.630;2023-04-07T10:37:20;18.30;99.90
26655;DHT22;14278;50.784;4.630;2023-04-07T10:39:48;18.90;99.90
26655;DHT22;14278;50.784;4.630;2023-04-07T10:45:02;18.70;99.90
26655;DHT22;14278;50.784;4.630;2023-04-07T10:47:29;17.50;99.90
26655;DHT22;14278;50.784;4.630;2023-04-07T10:50:20;17.80;99.90
26655;DHT22;14278;50.784;4.630;2023-04-07T10:52:47;17.80;99.90
26655;DHT22;14278;50.784;4.630;2023-04-07T10:55:39;17.20;99.90
26655;DHT22;14278;50.784;4.630;2023-04-07T10:58:24;16.60;99.90
26655;DHT22;14278;50.784;4.630;2023-04-07T11:03:29;16.30;99.90
26655;DHT22;14278;50.784;4.630;2023-04-07T11:06:12;15.80;99.90
26655;DHT22;14278;50.784;4.630;2023-04-07T11:08:43;15.10;99.90
26655;DHT22;14278;50.784;4.630;2023-04-07T11:11:12;14.70;99.90
26655;DHT22;14278;50.784;4.630;2023-04-07T11:13:46;14.20;99.90
26655;DHT22;14278;50.784;4.630;2023-04-07T11:16:13;14.40;99.90
26655;DHT22;14278;50.784;4.630;2023-04-07T11:18:40;14.40;99.90
26655;DHT22;14278;50.784;4.630;2023-04-07T11:21:06;14.90;99.90
26655;DHT22;14278;50.784;4.630;2023-04-07T11:23:43;14.60;99.90
26655;DHT22;14278;50.784;4.630;2023-04-07T11:26:11;14.40;99.90
26655;DHT22;14278;50.784;4.630;2023-04-07T11:28:48;14.10;99.90
26655;DHT22;14278;50.784;4.630;2023-04-07T11:31:28;14.00;99.90
26655;DHT22;14278;50.784;4.630;2023-04-07T11:33:57;14.30;99.90
26655;DHT22;14278;50.784;4.630;2023-04-07T11:36:41;14.70;99.90
26655;DHT22;14278;50.784;4.630;2023-04-07T11:39:19;14.80;99.90
26655;DHT22;14278;50.784;4.630;2023-04-07T11:41:49;15.20;99.90
26655;DHT22;14278;50.784;4.630;2023-04-07T11:44:15;15.40;99.90
26655;DHT22;14278;50.784;4.630;2023-04-07T11:46:58;15.50;99.90
26655;DHT22;14278;50.784;4.630;2023-04-07T11:49:26;16.00;99.90
26655;DHT22;14278;50.784;4.630;2023-04-07T11:52:05;16.40;99.90
26655;DHT22;14278;50.784;4.630;2023-04-07T11:54:40;16.40;99.90
26655;DHT22;14278;50.784;4.630;2023-04-07T11:57:06;16.40;99.90
26655;DHT22;14278;50.784;4.630;2023-04-07T11:59:34;16.30;99.90
26655;DHT22;14278;50.784;4.630;2023-04-07T12:02:01;16.30;99.90
26655;DHT22;14278;50.784;4.630;2023-04-07T12:04:28;16.40;99.90
26655;DHT22;14278;50.784;4.630;2023-04-07T12:06:54;16.70;99.90
26655;DHT22;14278;50.784;4.630;2023-04-07T12:09:32;16.40;99.90
26655;DHT22;14278;50.784;4.630;2023-04-07T12:12:03;15.90;99.90
26655;DHT22;14278;50.784;4.630;2023-04-07T12:14:35;15.70;99.90
26655;DHT22;14278;50.784;4.630;2023-04-07T12:17:01;15.40;99.90
26655;DHT22;14278;50.784;4.630;2023-04-07T12:19:29;15.70;99.90
26655;DHT22;14278;50.784;4.630;2023-04-07T12:21:57;15.10;99.90
26655;DHT22;14278;50.784;4.630;2023-04-07T12:24:22;15.40;99.90
26655;DHT22;14278;50.784;4.630;2023-04-07T12:26:49;15.00;99.90
26655;DHT22;14278;50.784;4.630;2023-04-07T12:29:16;15.80;99.90
26655;DHT22;14278;50.784;4.630;2023-04-07T12:31:43;16.00;99.90
26655;DHT22;14278;50.784;4.630;2023-04-07T12:34:09;16.30;99.90
26655;DHT22;14278;50.784;4.630;2023-04-07T12:36:35;16.10;99.90
26655;DHT22;14278;50.784;4.630;2023-04-07T12:39:02;16.00;99.90
26655;DHT22;14278;50.784;4.630;2023-04-07T12:41:28;16.00;99.90
26655;DHT22;14278;50.784;4.630;2023-04-07T12:43:54;15.80;99.90
26655;DHT22;14278;50.784;4.630;2023-04-07T12:46:19;15.90;99.90
26655;DHT22;14278;50.784;4.630;2023-04-07T12:48:46;15.80;99.90
26655;DHT22;14278;50.784;4.630;2023-04-07T12:51:13;16.20;99.90
26655;DHT22;14278;50.784;4.630;2023-04-07T12:53:39;16.40;99.90
26655;DHT22;14278;50.784;4.630;2023-04-07T12:56:05;16.10;99.90
26655;DHT22;14278;50.784;4.630;2023-04-07T12:58:31;16.10;99.90
26655;DHT22;14278;50.784;4.630;2023-04-07T13:00:57;16.00;99.90
26655;DHT22;14278;50.784;4.630;2023-04-07T13:03:25;16.10;99.90
26655;DHT22;14278;50.784;4.630;2023-04-07T13:05:51;15.40;99.90
26655;DHT22;14278;50.784;4.630;2023-04-07T13:08:19;15.20;99.90
26655;DHT22;14278;50.784;4.630;2023-04-07T13:10:46;15.00;99.90
26655;DHT22;14278;50.784;4.630;2023-04-07T13:13:11;15.00;99.90
26655;DHT22;14278;50.784;4.630;2023-04-07T13:15:38;15.20;99.90
26655;DHT22;14278;50.784;4.630;2023-04-07T13:18:04;15.30;99.90
26655;DHT22;14278;50.784;4.630;2023-04-07T13:20:30;15.20;99.90
26655;DHT22;14278;50.784;4.630;2023-04-07T13:22:55;14.60;99.90
26655;DHT22;14278;50.784;4.630;2023-04-07T13:25:21;14.50;99.90
26655;DHT22;14278;50.784;4.630;2023-04-07T13:27:48;14.10;99.90
26655;DHT22;14278;50.784;4.630;2023-04-07T13:30:14;14.90;99.90
26655;DHT22;14278;50.784;4.630;2023-04-07T13:32:40;14.90;99.90
26655;DHT22;14278;50.784;4.630;2023-04-07T13:35:06;15.10;99.90
26655;DHT22;14278;50.784;4.630;2023-04-07T13:37:32;15.70;99.90
26655;DHT22;14278;50.784;4.630;2023-04-07T13:39:59;15.90;99.90
26655;DHT22;14278;50.784;4.630;2023-04-07T13:42:25;15.80;99.90
26655;DHT22;14278;50.784;4.630;2023-04-07T13:44:51;15.30;99.90
26655;DHT22;14278;50.784;4.630;2023-04-07T13:47:19;14.90;99.90
26655;DHT22;14278;50.784;4.630;2023-04-07T13:49:48;14.80;99.90
26655;DHT22;14278;50.784;4.630;2023-04-07T13:52:16;15.00;99.90
26655;DHT22;14278;50.784;4.630;2023-04-07T13:54:43;14.50;99.90
26655;DHT22;14278;50.784;4.630;2023-04-07T13:57:10;14.50;99.90
26655;DHT22;14278;50.784;4.630;2023-04-07T13:59:36;14.40;99.90
26655;DHT22;14278;50.784;4.630;2023-04-07T14:02:02;14.60;99.90
26655;DHT22;14278;50.784;4.630;2023-04-07T14:04:29;14.70;99.90
26655;DHT22;14278;50.784;4.630;2023-04-07T14:06:55;14.60;99.90
26655;DHT22;14278;50.784;4.630;2023-04-07T14:09:20;14.60;99.90
26655;DHT22;14278;50.784;4.630;2023-04-07T14:11:46;14.50;99.90
26655;DHT22;14278;50.784;4.630;2023-04-07T14:14:13;14.40;99.90
26655;DHT22;14278;50.784;4.630;2023-04-07T14:16:40;14.30;99.90
26655;DHT22;14278;50.784;4.630;2023-04-07T14:19:05;13.80;99.90
26655;DHT22;14278;50.784;4.630;2023-04-07T14:21:31;13.80;99.90
26655;DHT22;14278;50.784;4.630;2023-04-07T14:23:57;14.30;99.90
26655;DHT22;14278;50.784;4.630;2023-04-07T14:26:23;14.60;99.90
26655;DHT22;14278;50.784;4.630;2023-04-07T14:28:49;14.60;99.90
26655;DHT22;14278;50.784;4.630;2023-04-07T14:31:15;14.50;99.90
26655;DHT22;14278;50.784;4.630;2023-04-07T14:33:44;14.40;99.90
26655;DHT22;14278;50.784;4.630;2023-04-07T14:36:10;14.50;99.90
26655;DHT22;14278;50.784;4.630;2023-04-07T14:38:36;14.30;99.90
26655;DHT22;14278;50.784;4.630;2023-04-07T14:41:03;14.20;99.90
26655;DHT22;14278;50.784;4.630;2023-04-07T14:43:29;14.30;99.90
26655;DHT22;14278;50.784;4.630;2023-04-07T14:45:55;14.70;99.90
26655;DHT22;14278;50.784;4.630;2023-04-07T14:48:22;14.50;99.90
26655;DHT22;14278;50.784;4.630;2023-04-07T14:50:47;14.30;99.90
26655;DHT22;14278;50.784;4.630;2023-04-07T14:53:14;14.20;99.90
26655;DHT22;14278;50.784;4.630;2023-04-07T14:55:41;13.90;99.90
26655;DHT22;14278;50.784;4.630;2023-04-07T14:58:07;13.70;99.90
26655;DHT22;14278;50.784;4.630;2023-04-07T15:00:33;13.30;99.90
26655;DHT22;14278;50.784;4.630;2023-04-07T15:02:58;13.00;99.90
26655;DHT22;14278;50.784;4.630;2023-04-07T15:05:26;13.10;99.90
26655;DHT22;14278;50.784;4.630;2023-04-07T15:07:53;13.00;99.90
26655;DHT22;14278;50.784;4.630;2023-04-07T15:10:19;13.10;99.90
26655;DHT22;14278;50.784;4.630;2023-04-07T15:12:45;12.90;99.90
26655;DHT22;14278;50.784;4.630;2023-04-07T15:15:15;12.60;99.90
26655;DHT22;14278;50.784;4.630;2023-04-07T15:17:41;12.90;99.90
26655;DHT22;14278;50.784;4.630;2023-04-07T15:20:07;13.10;99.90
26655;DHT22;14278;50.784;4.630;2023-04-07T15:22:34;13.20;99.90
26655;DHT22;14278;50.784;4.630;2023-04-07T15:25:00;13.20;99.90
26655;DHT22;14278;50.784;4.630;2023-04-07T15:27:27;13.10;99.90
26655;DHT22;14278;50.784;4.630;2023-04-07T15:29:54;13.40;99.90
26655;DHT22;14278;50.784;4.630;2023-04-07T15:32:20;13.70;99.90
26655;DHT22;14278;50.784;4.630;2023-04-07T15:34:46;14.20;99.90
26655;DHT22;14278;50.784;4.630;2023-04-07T15:37:12;14.00;99.90
26655;DHT22;14278;50.784;4.630;2023-04-07T15:39:38;13.60;99.90
26655;DHT22;14278;50.784;4.630;2023-04-07T15:42:05;13.80;99.90
26655;DHT22;14278;50.784;4.630;2023-04-07T15:44:37;13.60;99.90
26655;DHT22;14278;50.784;4.630;2023-04-07T15:47:07;13.60;99.90
26655;DHT22;14278;50.784;4.630;2023-04-07T15:49:34;13.70;99.90
26655;DHT22;14278;50.784;4.630;2023-04-07T15:52:03;13.30;99.90
26655;DHT22;14278;50.784;4.630;2023-04-07T15:54:31;13.20;99.90
26655;DHT22;14278;50.784;4.630;2023-04-07T15:56:57;13.70;99.90
26655;DHT22;14278;50.784;4.630;2023-04-07T15:59:22;13.50;99.90
26655;DHT22;14278;50.784;4.630;2023-04-07T16:01:49;13.50;99.90